sensor_id;sensor_type;location;lat;lon;timestamp;P1;durP1;ratioP1;P2;durP2;ratioP2
6422;SDS011;3244;42.708;23.288;2024-02-04T00:01:44;4.13;;;2.97;;
6422;SDS011;3244;42.708;23.288;2024-02-04T00:04:10;3.17;;;2.88;;
6422;SDS011;3244;42.708;23.288;2024-02-04T00:06:37;9.10;;;2.92;;
6422;SDS011;3244;42.708;23.288;2024-02-04T00:09:03;4.40;;;2.88;;
6422;SDS011;3244;42.708;23.288;2024-02-04T00:11:30;4.13;;;3.13;;
6422;SDS011;3244;42.708;23.288;2024-02-04T00:13:56;5.43;;;3.05;;
6422;SDS011;3244;42.708;23.288;2024-02-04T00:16:25;3.25;;;3.05;;
6422;SDS011;3244;42.708;23.288;2024-02-04T00:18:53;3.83;;;3.30;;
6422;SDS011;3244;42.708;23.288;2024-02-04T00:21:20;4.85;;;3.83;;
6422;SDS011;3244;42.708;23.288;2024-02-04T00:23:46;7.32;;;3.45;;
6422;SDS011;3244;42.708;23.288;2024-02-04T00:26:12;5.30;;;3.38;;
6422;SDS011;3244;42.708;23.288;2024-02-04T00:28:39;3.75;;;3.53;;
6422;SDS011;3244;42.708;23.288;2024-02-04T00:31:08;2.80;;;2.60;;
6422;SDS011;3244;42.708;23.288;2024-02-04T00:33:34;4.53;;;3.42;;
6422;SDS011;3244;42.708;23.288;2024-02-04T00:36:02;5.03;;;3.50;;
6422;SDS011;3244;42.708;23.288;2024-02-04T00:38:28;3.17;;;2.83;;
6422;SDS011;3244;42.708;23.288;2024-02-04T00:40:55;4.32;;;3.25;;
6422;SDS011;3244;42.708;23.288;2024-02-04T00:43:22;3.72;;;3.42;;
6422;SDS011;3244;42.708;23.288;2024-02-04T00:45:51;5.35;;;3.28;;
6422;SDS011;3244;42.708;23.288;2024-02-04T00:48:19;4.13;;;3.60;;
6422;SDS011;3244;42.708;23.288;2024-02-04T00:50:45;6.18;;;3.40;;
6422;SDS011;3244;42.708;23.288;2024-02-04T00:53:14;3.97;;;3.42;;
6422;SDS011;3244;42.708;23.288;2024-02-04T00:55:41;5.60;;;3.58;;
6422;SDS011;3244;42.708;23.288;2024-02-04T00:58:07;4.05;;;2.78;;
6422;SDS011;3244;42.708;23.288;2024-02-04T01:00:34;5.28;;;3.28;;
6422;SDS011;3244;42.708;23.288;2024-02-04T01:03:00;3.38;;;3.08;;
6422;SDS011;3244;42.708;23.288;2024-02-04T01:05:26;3.50;;;3.20;;
6422;SDS011;3244;42.708;23.288;2024-02-04T01:07:53;3.30;;;3.00;;
6422;SDS011;3244;42.708;23.288;2024-02-04T01:10:21;3.88;;;3.50;;
6422;SDS011;3244;42.708;23.288;2024-02-04T01:12:47;3.40;;;2.80;;
6422;SDS011;3244;42.708;23.288;2024-02-04T01:15:14;3.70;;;3.40;;
6422;SDS011;3244;42.708;23.288;2024-02-04T01:17:40;5.40;;;3.47;;
6422;SDS011;3244;42.708;23.288;2024-02-04T01:20:07;6.13;;;2.97;;
6422;SDS011;3244;42.708;23.288;2024-02-04T01:22:34;5.93;;;3.00;;
6422;SDS011;3244;42.708;23.288;2024-02-04T01:25:00;3.67;;;3.03;;
6422;SDS011;3244;42.708;23.288;2024-02-04T01:27:29;4.72;;;2.70;;
6422;SDS011;3244;42.708;23.288;2024-02-04T01:29:55;3.85;;;2.95;;
6422;SDS011;3244;42.708;23.288;2024-02-04T01:32:22;3.10;;;2.90;;
6422;SDS011;3244;42.708;23.288;2024-02-04T01:34:48;3.33;;;2.85;;
6422;SDS011;3244;42.708;23.288;2024-02-04T01:37:15;3.30;;;3.08;;
6422;SDS011;3244;42.708;23.288;2024-02-04T01:39:41;4.07;;;2.80;;
6422;SDS011;3244;42.708;23.288;2024-02-04T01:42:08;2.67;;;2.47;;
6422;SDS011;3244;42.708;23.288;2024-02-04T01:44:36;6.68;;;3.05;;
6422;SDS011;3244;42.708;23.288;2024-02-04T01:47:03;4.13;;;2.83;;
6422;SDS011;3244;42.708;23.288;2024-02-04T01:49:29;3.97;;;3.15;;
6422;SDS011;3244;42.708;23.288;2024-02-04T01:51:56;3.03;;;2.53;;
6422;SDS011;3244;42.708;23.288;2024-02-04T01:54:23;3.65;;;3.10;;
6422;SDS011;3244;42.708;23.288;2024-02-04T01:56:49;2.70;;;2.50;;
6422;SDS011;3244;42.708;23.288;2024-02-04T01:59:16;3.50;;;3.20;;
6422;SDS011;3244;42.708;23.288;2024-02-04T02:01:44;4.10;;;2.78;;
6422;SDS011;3244;42.708;23.288;2024-02-04T02:04:10;2.92;;;2.72;;
6422;SDS011;3244;42.708;23.288;2024-02-04T02:06:37;2.85;;;2.60;;
6422;SDS011;3244;42.708;23.288;2024-02-04T02:09:07;3.05;;;2.75;;
6422;SDS011;3244;42.708;23.288;2024-02-04T02:11:37;3.17;;;2.88;;
6422;SDS011;3244;42.708;23.288;2024-02-04T02:14:06;3.30;;;3.10;;
6422;SDS011;3244;42.708;23.288;2024-02-04T02:16:36;3.28;;;3.08;;
6422;SDS011;3244;42.708;23.288;2024-02-04T02:19:07;3.08;;;2.88;;
6422;SDS011;3244;42.708;23.288;2024-02-04T02:21:38;2.67;;;2.47;;
6422;SDS011;3244;42.708;23.288;2024-02-04T02:24:10;3.00;;;2.35;;
6422;SDS011;3244;42.708;23.288;2024-02-04T02:26:38;3.20;;;2.97;;
6422;SDS011;3244;42.708;23.288;2024-02-04T02:29:06;3.28;;;2.97;;
6422;SDS011;3244;42.708;23.288;2024-02-04T02:31:33;2.72;;;2.53;;
6422;SDS011;3244;42.708;23.288;2024-02-04T02:33:59;5.00;;;2.65;;
6422;SDS011;3244;42.708;23.288;2024-02-04T02:36:25;4.38;;;2.70;;
6422;SDS011;3244;42.708;23.288;2024-02-04T02:38:56;3.78;;;2.97;;
6422;SDS011;3244;42.708;23.288;2024-02-04T02:41:25;3.13;;;2.83;;
6422;SDS011;3244;42.708;23.288;2024-02-04T02:43:57;3.58;;;3.22;;
6422;SDS011;3244;42.708;23.288;2024-02-04T02:46:24;4.97;;;3.20;;
6422;SDS011;3244;42.708;23.288;2024-02-04T02:48:51;4.78;;;2.90;;
6422;SDS011;3244;42.708;23.288;2024-02-04T02:51:17;3.20;;;2.90;;
6422;SDS011;3244;42.708;23.288;2024-02-04T02:53:44;2.90;;;2.72;;
6422;SDS011;3244;42.708;23.288;2024-02-04T02:56:10;4.05;;;3.20;;
6422;SDS011;3244;42.708;23.288;2024-02-04T02:58:36;3.85;;;3.08;;
6422;SDS011;3244;42.708;23.288;2024-02-04T03:01:05;3.20;;;2.90;;
6422;SDS011;3244;42.708;23.288;2024-02-04T03:03:31;3.08;;;2.88;;
6422;SDS011;3244;42.708;23.288;2024-02-04T03:05:58;3.08;;;2.88;;
6422;SDS011;3244;42.708;23.288;2024-02-04T03:08:24;2.80;;;2.60;;
6422;SDS011;3244;42.708;23.288;2024-02-04T03:10:51;4.55;;;3.17;;
6422;SDS011;3244;42.708;23.288;2024-02-04T03:13:17;4.63;;;3.10;;
6422;SDS011;3244;42.708;23.288;2024-02-04T03:15:43;4.43;;;2.88;;
6422;SDS011;3244;42.708;23.288;2024-02-04T03:18:11;4.43;;;3.15;;
6422;SDS011;3244;42.708;23.288;2024-02-04T03:20:38;3.33;;;2.72;;
6422;SDS011;3244;42.708;23.288;2024-02-04T03:23:04;2.53;;;2.40;;
6422;SDS011;3244;42.708;23.288;2024-02-04T03:25:31;3.50;;;3.20;;
6422;SDS011;3244;42.708;23.288;2024-02-04T03:27:57;3.17;;;2.97;;
6422;SDS011;3244;42.708;23.288;2024-02-04T03:30:24;2.88;;;2.67;;
6422;SDS011;3244;42.708;23.288;2024-02-04T03:32:50;3.35;;;3.00;;
6422;SDS011;3244;42.708;23.288;2024-02-04T03:35:18;2.88;;;2.67;;
6422;SDS011;3244;42.708;23.288;2024-02-04T03:37:44;4.68;;;3.40;;
6422;SDS011;3244;42.708;23.288;2024-02-04T03:40:11;3.50;;;2.65;;
6422;SDS011;3244;42.708;23.288;2024-02-04T03:42:38;2.75;;;2.53;;
6422;SDS011;3244;42.708;23.288;2024-02-04T03:45:05;3.08;;;2.88;;
6422;SDS011;3244;42.708;23.288;2024-02-04T03:47:32;2.40;;;2.20;;
6422;SDS011;3244;42.708;23.288;2024-02-04T03:49:59;3.42;;;2.58;;
6422;SDS011;3244;42.708;23.288;2024-02-04T03:52:27;3.40;;;2.65;;
6422;SDS011;3244;42.708;23.288;2024-02-04T03:54:54;2.47;;;2.28;;
6422;SDS011;3244;42.708;23.288;2024-02-04T03:57:22;2.50;;;2.38;;
6422;SDS011;3244;42.708;23.288;2024-02-04T03:59:48;2.78;;;2.45;;
6422;SDS011;3244;42.708;23.288;2024-02-04T04:02:15;2.80;;;2.45;;
6422;SDS011;3244;42.708;23.288;2024-02-04T04:04:41;2.63;;;2.42;;
6422;SDS011;3244;42.708;23.288;2024-02-04T04:07:08;4.72;;;2.30;;
6422;SDS011;3244;42.708;23.288;2024-02-04T04:09:36;2.75;;;2.55;;
6422;SDS011;3244;42.708;23.288;2024-02-04T04:12:03;2.92;;;2.53;;
6422;SDS011;3244;42.708;23.288;2024-02-04T04:14:30;2.85;;;2.65;;
6422;SDS011;3244;42.708;23.288;2024-02-04T04:16:56;4.28;;;3.00;;
6422;SDS011;3244;42.708;23.288;2024-02-04T04:19:23;4.78;;;2.75;;
6422;SDS011;3244;42.708;23.288;2024-02-04T04:21:49;2.78;;;2.58;;
6422;SDS011;3244;42.708;23.288;2024-02-04T04:24:16;3.20;;;2.80;;
6422;SDS011;3244;42.708;23.288;2024-02-04T04:26:46;4.07;;;3.03;;
6422;SDS011;3244;42.708;23.288;2024-02-04T04:29:12;2.47;;;2.28;;
6422;SDS011;3244;42.708;23.288;2024-02-04T04:31:39;2.92;;;2.72;;
6422;SDS011;3244;42.708;23.288;2024-02-04T04:34:05;2.75;;;2.55;;
6422;SDS011;3244;42.708;23.288;2024-02-04T04:36:31;3.90;;;2.85;;
6422;SDS011;3244;42.708;23.288;2024-02-04T04:38:58;3.10;;;2.70;;
6422;SDS011;3244;42.708;23.288;2024-02-04T04:41:25;3.40;;;3.03;;
6422;SDS011;3244;42.708;23.288;2024-02-04T04:43:52;3.08;;;2.42;;
6422;SDS011;3244;42.708;23.288;2024-02-04T04:46:19;3.38;;;2.30;;
6422;SDS011;3244;42.708;23.288;2024-02-04T04:48:45;2.60;;;2.40;;
6422;SDS011;3244;42.708;23.288;2024-02-04T04:51:12;3.35;;;3.15;;
6422;SDS011;3244;42.708;23.288;2024-02-04T04:53:38;4.22;;;2.80;;
6422;SDS011;3244;42.708;23.288;2024-02-04T04:56:05;3.05;;;2.83;;
6422;SDS011;3244;42.708;23.288;2024-02-04T04:58:32;3.38;;;3.13;;
6422;SDS011;3244;42.708;23.288;2024-02-04T05:01:00;2.80;;;2.60;;
6422;SDS011;3244;42.708;23.288;2024-02-04T05:03:26;2.70;;;2.50;;
6422;SDS011;3244;42.708;23.288;2024-02-04T05:05:53;3.03;;;2.78;;
6422;SDS011;3244;42.708;23.288;2024-02-04T05:08:19;2.63;;;2.42;;
6422;SDS011;3244;42.708;23.288;2024-02-04T05:10:46;5.72;;;2.38;;
6422;SDS011;3244;42.708;23.288;2024-02-04T05:13:12;3.70;;;3.40;;
6422;SDS011;3244;42.708;23.288;2024-02-04T05:15:39;2.70;;;2.53;;
6422;SDS011;3244;42.708;23.288;2024-02-04T05:18:07;2.38;;;2.22;;
6422;SDS011;3244;42.708;23.288;2024-02-04T05:20:33;3.08;;;2.88;;
6422;SDS011;3244;42.708;23.288;2024-02-04T05:23:00;2.75;;;2.53;;
6422;SDS011;3244;42.708;23.288;2024-02-04T05:25:26;2.90;;;2.60;;
6422;SDS011;3244;42.708;23.288;2024-02-04T05:27:52;2.95;;;2.75;;
6422;SDS011;3244;42.708;23.288;2024-02-04T05:30:19;3.10;;;2.90;;
6422;SDS011;3244;42.708;23.288;2024-02-04T05:32:45;3.10;;;2.80;;
6422;SDS011;3244;42.708;23.288;2024-02-04T05:35:13;2.67;;;2.47;;
6422;SDS011;3244;42.708;23.288;2024-02-04T05:37:40;2.63;;;2.42;;
6422;SDS011;3244;42.708;23.288;2024-02-04T05:40:06;2.90;;;2.75;;
6422;SDS011;3244;42.708;23.288;2024-02-04T05:42:33;2.85;;;2.60;;
6422;SDS011;3244;42.708;23.288;2024-02-04T05:45:01;2.72;;;2.53;;
6422;SDS011;3244;42.708;23.288;2024-02-04T05:47:27;5.00;;;2.40;;
6422;SDS011;3244;42.708;23.288;2024-02-04T05:49:53;7.90;;;3.20;;
6422;SDS011;3244;42.708;23.288;2024-02-04T05:52:21;3.53;;;2.92;;
6422;SDS011;3244;42.708;23.288;2024-02-04T05:54:48;3.15;;;2.88;;
6422;SDS011;3244;42.708;23.288;2024-02-04T05:57:14;5.63;;;3.15;;
6422;SDS011;3244;42.708;23.288;2024-02-04T05:59:41;3.35;;;3.13;;
6422;SDS011;3244;42.708;23.288;2024-02-04T06:02:07;3.38;;;3.10;;
6422;SDS011;3244;42.708;23.288;2024-02-04T06:04:33;5.10;;;4.53;;
6422;SDS011;3244;42.708;23.288;2024-02-04T06:07:01;5.40;;;3.65;;
6422;SDS011;3244;42.708;23.288;2024-02-04T06:09:29;4.95;;;3.30;;
6422;SDS011;3244;42.708;23.288;2024-02-04T06:11:55;4.72;;;3.65;;
6422;SDS011;3244;42.708;23.288;2024-02-04T06:14:22;4.63;;;3.10;;
6422;SDS011;3244;42.708;23.288;2024-02-04T06:16:48;4.63;;;3.00;;
6422;SDS011;3244;42.708;23.288;2024-02-04T06:19:15;3.47;;;3.17;;
6422;SDS011;3244;42.708;23.288;2024-02-04T06:21:41;3.58;;;3.30;;
6422;SDS011;3244;42.708;23.288;2024-02-04T06:24:08;4.50;;;4.10;;
6422;SDS011;3244;42.708;23.288;2024-02-04T06:26:38;5.60;;;4.22;;
6422;SDS011;3244;42.708;23.288;2024-02-04T06:29:04;3.67;;;3.30;;
6422;SDS011;3244;42.708;23.288;2024-02-04T06:31:31;8.95;;;4.10;;
6422;SDS011;3244;42.708;23.288;2024-02-04T06:33:57;3.72;;;3.42;;
6422;SDS011;3244;42.708;23.288;2024-02-04T06:36:24;3.90;;;3.50;;
6422;SDS011;3244;42.708;23.288;2024-02-04T06:38:50;5.80;;;3.70;;
6422;SDS011;3244;42.708;23.288;2024-02-04T06:41:16;4.90;;;3.42;;
6422;SDS011;3244;42.708;23.288;2024-02-04T06:43:44;3.70;;;2.97;;
6422;SDS011;3244;42.708;23.288;2024-02-04T06:46:11;3.72;;;3.17;;
6422;SDS011;3244;42.708;23.288;2024-02-04T06:48:37;9.93;;;3.15;;
6422;SDS011;3244;42.708;23.288;2024-02-04T06:51:04;3.92;;;3.13;;
6422;SDS011;3244;42.708;23.288;2024-02-04T06:53:30;2.88;;;2.67;;
6422;SDS011;3244;42.708;23.288;2024-02-04T06:55:57;4.72;;;4.07;;
6422;SDS011;3244;42.708;23.288;2024-02-04T06:58:23;4.05;;;3.65;;
6422;SDS011;3244;42.708;23.288;2024-02-04T07:00:51;6.57;;;3.92;;
6422;SDS011;3244;42.708;23.288;2024-02-04T07:03:17;5.90;;;4.40;;
6422;SDS011;3244;42.708;23.288;2024-02-04T07:05:44;4.18;;;3.67;;
6422;SDS011;3244;42.708;23.288;2024-02-04T07:08:12;3.75;;;3.22;;
6422;SDS011;3244;42.708;23.288;2024-02-04T07:10:38;4.18;;;3.20;;
6422;SDS011;3244;42.708;23.288;2024-02-04T07:13:04;3.40;;;3.10;;
6422;SDS011;3244;42.708;23.288;2024-02-04T07:15:31;4.47;;;2.88;;
6422;SDS011;3244;42.708;23.288;2024-02-04T07:17:59;3.15;;;2.95;;
6422;SDS011;3244;42.708;23.288;2024-02-04T07:20:26;4.18;;;3.15;;
6422;SDS011;3244;42.708;23.288;2024-02-04T07:22:52;4.05;;;3.22;;
6422;SDS011;3244;42.708;23.288;2024-02-04T07:25:19;3.28;;;2.97;;
6422;SDS011;3244;42.708;23.288;2024-02-04T07:27:45;3.80;;;2.88;;
6422;SDS011;3244;42.708;23.288;2024-02-04T07:30:12;3.13;;;2.83;;
6422;SDS011;3244;42.708;23.288;2024-02-04T07:32:38;3.10;;;2.80;;
6422;SDS011;3244;42.708;23.288;2024-02-04T07:35:06;2.97;;;2.72;;
6422;SDS011;3244;42.708;23.288;2024-02-04T07:37:34;3.13;;;2.78;;
6422;SDS011;3244;42.708;23.288;2024-02-04T07:40:00;3.47;;;3.22;;
6422;SDS011;3244;42.708;23.288;2024-02-04T07:42:27;4.38;;;2.63;;
6422;SDS011;3244;42.708;23.288;2024-02-04T07:44:53;6.82;;;2.83;;
6422;SDS011;3244;42.708;23.288;2024-02-04T07:47:20;3.42;;;2.90;;
6422;SDS011;3244;42.708;23.288;2024-02-04T07:49:47;5.25;;;3.67;;
6422;SDS011;3244;42.708;23.288;2024-02-04T07:52:14;5.90;;;3.78;;
6422;SDS011;3244;42.708;23.288;2024-02-04T07:54:41;3.45;;;2.92;;
6422;SDS011;3244;42.708;23.288;2024-02-04T07:57:08;3.75;;;3.45;;
6422;SDS011;3244;42.708;23.288;2024-02-04T07:59:34;2.67;;;2.47;;
6422;SDS011;3244;42.708;23.288;2024-02-04T08:02:01;3.92;;;2.78;;
6422;SDS011;3244;42.708;23.288;2024-02-04T08:04:28;3.08;;;2.88;;
6422;SDS011;3244;42.708;23.288;2024-02-04T08:06:54;3.15;;;2.85;;
6422;SDS011;3244;42.708;23.288;2024-02-04T08:09:22;4.65;;;3.50;;
6422;SDS011;3244;42.708;23.288;2024-02-04T08:11:48;3.10;;;2.90;;
6422;SDS011;3244;42.708;23.288;2024-02-04T08:14:15;6.40;;;4.35;;
6422;SDS011;3244;42.708;23.288;2024-02-04T08:16:42;2.88;;;2.67;;
6422;SDS011;3244;42.708;23.288;2024-02-04T08:19:11;12.70;;;6.57;;
6422;SDS011;3244;42.708;23.288;2024-02-04T08:21:38;5.47;;;3.92;;
6422;SDS011;3244;42.708;23.288;2024-02-04T08:24:05;4.20;;;2.70;;
6422;SDS011;3244;42.708;23.288;2024-02-04T08:26:36;6.32;;;2.80;;
6422;SDS011;3244;42.708;23.288;2024-02-04T08:29:02;7.82;;;3.17;;
6422;SDS011;3244;42.708;23.288;2024-02-04T08:31:31;4.90;;;3.78;;
6422;SDS011;3244;42.708;23.288;2024-02-04T08:33:58;4.05;;;2.63;;
6422;SDS011;3244;42.708;23.288;2024-02-04T08:36:24;6.07;;;2.50;;
6422;SDS011;3244;42.708;23.288;2024-02-04T08:38:54;2.58;;;2.38;;
6422;SDS011;3244;42.708;23.288;2024-02-04T08:41:23;2.45;;;2.35;;
6422;SDS011;3244;42.708;23.288;2024-02-04T08:43:51;2.47;;;2.28;;
6422;SDS011;3244;42.708;23.288;2024-02-04T08:46:18;2.45;;;2.33;;
6422;SDS011;3244;42.708;23.288;2024-02-04T08:48:44;4.75;;;2.10;;
6422;SDS011;3244;42.708;23.288;2024-02-04T08:51:11;1.63;;;1.52;;
6422;SDS011;3244;42.708;23.288;2024-02-04T08:53:38;2.90;;;1.95;;
6422;SDS011;3244;42.708;23.288;2024-02-04T08:56:05;2.05;;;1.95;;
6422;SDS011;3244;42.708;23.288;2024-02-04T08:58:34;2.00;;;1.90;;
6422;SDS011;3244;42.708;23.288;2024-02-04T09:01:03;5.63;;;2.72;;
6422;SDS011;3244;42.708;23.288;2024-02-04T09:03:30;2.00;;;1.90;;
6422;SDS011;3244;42.708;23.288;2024-02-04T09:05:56;4.32;;;2.08;;
6422;SDS011;3244;42.708;23.288;2024-02-04T09:08:24;8.32;;;2.53;;
6422;SDS011;3244;42.708;23.288;2024-02-04T09:10:50;2.55;;;2.25;;
6422;SDS011;3244;42.708;23.288;2024-02-04T09:13:17;1.98;;;1.85;;
6422;SDS011;3244;42.708;23.288;2024-02-04T09:15:43;7.93;;;2.90;;
6422;SDS011;3244;42.708;23.288;2024-02-04T09:18:13;2.40;;;2.22;;
6422;SDS011;3244;42.708;23.288;2024-02-04T09:20:39;3.17;;;2.10;;
6422;SDS011;3244;42.708;23.288;2024-02-04T09:23:06;1.90;;;1.80;;
6422;SDS011;3244;42.708;23.288;2024-02-04T09:25:32;2.90;;;2.03;;
6422;SDS011;3244;42.708;23.288;2024-02-04T09:27:59;6.53;;;1.90;;
6422;SDS011;3244;42.708;23.288;2024-02-04T09:30:25;1.85;;;1.73;;
6422;SDS011;3244;42.708;23.288;2024-02-04T09:32:52;3.67;;;1.58;;
6422;SDS011;3244;42.708;23.288;2024-02-04T09:35:19;1.90;;;1.80;;
6422;SDS011;3244;42.708;23.288;2024-02-04T09:37:46;3.13;;;2.38;;
6422;SDS011;3244;42.708;23.288;2024-02-04T09:40:12;3.13;;;2.43;;
6422;SDS011;3244;42.708;23.288;2024-02-04T09:42:39;1.83;;;1.73;;
6422;SDS011;3244;42.708;23.288;2024-02-04T09:45:06;2.53;;;2.33;;
6422;SDS011;3244;42.708;23.288;2024-02-04T09:47:34;4.93;;;2.10;;
6422;SDS011;3244;42.708;23.288;2024-02-04T09:50:00;3.30;;;2.30;;
6422;SDS011;3244;42.708;23.288;2024-02-04T09:52:30;3.15;;;2.45;;
6422;SDS011;3244;42.708;23.288;2024-02-04T09:55:00;1.95;;;1.85;;
6422;SDS011;3244;42.708;23.288;2024-02-04T09:57:28;2.83;;;1.90;;
6422;SDS011;3244;42.708;23.288;2024-02-04T09:59:55;2.15;;;2.05;;
6422;SDS011;3244;42.708;23.288;2024-02-04T10:02:21;2.38;;;2.17;;
6422;SDS011;3244;42.708;23.288;2024-02-04T10:04:48;2.00;;;1.90;;
6422;SDS011;3244;42.708;23.288;2024-02-04T10:07:15;1.90;;;1.80;;
6422;SDS011;3244;42.708;23.288;2024-02-04T10:09:44;5.47;;;2.17;;
6422;SDS011;3244;42.708;23.288;2024-02-04T10:12:11;1.95;;;1.80;;
6422;SDS011;3244;42.708;23.288;2024-02-04T10:14:37;1.98;;;1.88;;
6422;SDS011;3244;42.708;23.288;2024-02-04T10:17:04;2.03;;;1.92;;
6422;SDS011;3244;42.708;23.288;2024-02-04T10:19:30;2.72;;;1.83;;
6422;SDS011;3244;42.708;23.288;2024-02-04T10:21:58;1.38;;;1.38;;
6422;SDS011;3244;42.708;23.288;2024-02-04T10:24:25;2.55;;;1.60;;
6422;SDS011;3244;42.708;23.288;2024-02-04T10:26:53;1.58;;;1.48;;
6422;SDS011;3244;42.708;23.288;2024-02-04T10:29:19;2.05;;;1.95;;
6422;SDS011;3244;42.708;23.288;2024-02-04T10:31:46;5.35;;;1.90;;
6422;SDS011;3244;42.708;23.288;2024-02-04T10:34:12;1.27;;;1.27;;
6422;SDS011;3244;42.708;23.288;2024-02-04T10:36:39;3.35;;;1.38;;
6422;SDS011;3244;42.708;23.288;2024-02-04T10:39:06;3.45;;;1.90;;
6422;SDS011;3244;42.708;23.288;2024-02-04T10:41:32;2.13;;;2.03;;
6422;SDS011;3244;42.708;23.288;2024-02-04T10:44:01;2.20;;;1.88;;
6422;SDS011;3244;42.708;23.288;2024-02-04T10:46:29;4.03;;;2.63;;
6422;SDS011;3244;42.708;23.288;2024-02-04T10:49:00;2.08;;;1.98;;
6422;SDS011;3244;42.708;23.288;2024-02-04T10:51:26;2.63;;;1.75;;
6422;SDS011;3244;42.708;23.288;2024-02-04T10:53:53;4.65;;;1.48;;
6422;SDS011;3244;42.708;23.288;2024-02-04T10:56:21;2.92;;;2.72;;
6422;SDS011;3244;42.708;23.288;2024-02-04T10:58:48;3.55;;;3.15;;
6422;SDS011;3244;42.708;23.288;2024-02-04T11:01:17;2.50;;;2.30;;
6422;SDS011;3244;42.708;23.288;2024-02-04T11:03:44;1.60;;;1.50;;
6422;SDS011;3244;42.708;23.288;2024-02-04T11:06:11;2.05;;;1.60;;
6422;SDS011;3244;42.708;23.288;2024-02-04T11:08:37;2.03;;;1.92;;
6422;SDS011;3244;42.708;23.288;2024-02-04T11:11:04;5.50;;;2.08;;
6422;SDS011;3244;42.708;23.288;2024-02-04T11:13:31;3.33;;;2.60;;
6422;SDS011;3244;42.708;23.288;2024-02-04T11:15:58;2.03;;;1.38;;
6422;SDS011;3244;42.708;23.288;2024-02-04T11:18:39;2.05;;;1.65;;
6422;SDS011;3244;42.708;23.288;2024-02-04T11:21:25;1.80;;;1.70;;
6422;SDS011;3244;42.708;23.288;2024-02-04T11:23:58;1.92;;;1.83;;
6422;SDS011;3244;42.708;23.288;2024-02-04T11:26:31;1.52;;;1.42;;
6422;SDS011;3244;42.708;23.288;2024-02-04T11:28:58;1.70;;;1.58;;
6422;SDS011;3244;42.708;23.288;2024-02-04T11:31:27;1.83;;;1.73;;
6422;SDS011;3244;42.708;23.288;2024-02-04T11:33:56;3.30;;;1.58;;
6422;SDS011;3244;42.708;23.288;2024-02-04T11:36:25;1.88;;;1.77;;
6422;SDS011;3244;42.708;23.288;2024-02-04T11:38:53;4.35;;;1.75;;
6422;SDS011;3244;42.708;23.288;2024-02-04T11:41:23;1.63;;;1.52;;
6422;SDS011;3244;42.708;23.288;2024-02-04T11:43:52;4.68;;;1.83;;
6422;SDS011;3244;42.708;23.288;2024-02-04T11:46:19;1.60;;;1.50;;
6422;SDS011;3244;42.708;23.288;2024-02-04T11:48:51;2.10;;;2.00;;
6422;SDS011;3244;42.708;23.288;2024-02-04T11:51:21;2.35;;;2.20;;
6422;SDS011;3244;42.708;23.288;2024-02-04T11:53:47;8.23;;;1.92;;
6422;SDS011;3244;42.708;23.288;2024-02-04T11:56:14;1.88;;;1.70;;
6422;SDS011;3244;42.708;23.288;2024-02-04T11:58:40;1.90;;;1.80;;
6422;SDS011;3244;42.708;23.288;2024-02-04T12:01:09;2.15;;;1.80;;
6422;SDS011;3244;42.708;23.288;2024-02-04T12:03:35;1.50;;;1.40;;
6422;SDS011;3244;42.708;23.288;2024-02-04T12:06:02;2.88;;;1.25;;
6422;SDS011;3244;42.708;23.288;2024-02-04T12:08:31;1.50;;;1.40;;
6422;SDS011;3244;42.708;23.288;2024-02-04T12:10:58;4.03;;;3.30;;
6422;SDS011;3244;42.708;23.288;2024-02-04T12:13:25;1.45;;;1.35;;
6422;SDS011;3244;42.708;23.288;2024-02-04T12:15:51;2.03;;;1.85;;
6422;SDS011;3244;42.708;23.288;2024-02-04T12:18:18;2.03;;;1.83;;
6422;SDS011;3244;42.708;23.288;2024-02-04T12:20:45;1.90;;;1.80;;
6422;SDS011;3244;42.708;23.288;2024-02-04T12:23:12;4.57;;;1.60;;
6422;SDS011;3244;42.708;23.288;2024-02-04T12:25:40;2.33;;;2.13;;
6422;SDS011;3244;42.708;23.288;2024-02-04T12:28:06;3.42;;;1.77;;
6422;SDS011;3244;42.708;23.288;2024-02-04T12:30:33;4.10;;;2.60;;
6422;SDS011;3244;42.708;23.288;2024-02-04T12:33:00;2.72;;;2.53;;
6422;SDS011;3244;42.708;23.288;2024-02-04T12:35:29;1.50;;;1.42;;
6422;SDS011;3244;42.708;23.288;2024-02-04T12:37:56;2.05;;;1.40;;
6422;SDS011;3244;42.708;23.288;2024-02-04T12:40:23;1.80;;;1.60;;
6422;SDS011;3244;42.708;23.288;2024-02-04T12:42:55;2.58;;;2.38;;
6422;SDS011;3244;42.708;23.288;2024-02-04T12:45:21;2.10;;;1.90;;
6422;SDS011;3244;42.708;23.288;2024-02-04T12:47:51;2.78;;;1.75;;
6422;SDS011;3244;42.708;23.288;2024-02-04T12:50:17;2.25;;;1.73;;
6422;SDS011;3244;42.708;23.288;2024-02-04T12:52:47;2.30;;;2.20;;
6422;SDS011;3244;42.708;23.288;2024-02-04T12:55:20;1.60;;;1.50;;
6422;SDS011;3244;42.708;23.288;2024-02-04T12:57:50;1.67;;;1.58;;
6422;SDS011;3244;42.708;23.288;2024-02-04T13:00:23;1.90;;;1.80;;
6422;SDS011;3244;42.708;23.288;2024-02-04T13:02:54;4.53;;;3.42;;
6422;SDS011;3244;42.708;23.288;2024-02-04T13:05:26;2.58;;;1.73;;
6422;SDS011;3244;42.708;23.288;2024-02-04T13:08:02;2.65;;;1.60;;
6422;SDS011;3244;42.708;23.288;2024-02-04T13:10:30;2.13;;;1.95;;
6422;SDS011;3244;42.708;23.288;2024-02-04T13:13:01;2.60;;;2.40;;
6422;SDS011;3244;42.708;23.288;2024-02-04T13:15:36;2.30;;;2.20;;
6422;SDS011;3244;42.708;23.288;2024-02-04T13:18:02;6.30;;;4.28;;
6422;SDS011;3244;42.708;23.288;2024-02-04T13:20:29;3.63;;;3.33;;
6422;SDS011;3244;42.708;23.288;2024-02-04T13:22:55;2.33;;;2.20;;
6422;SDS011;3244;42.708;23.288;2024-02-04T13:25:22;2.38;;;2.20;;
6422;SDS011;3244;42.708;23.288;2024-02-04T13:27:49;3.65;;;3.38;;
6422;SDS011;3244;42.708;23.288;2024-02-04T13:30:16;3.58;;;3.28;;
6422;SDS011;3244;42.708;23.288;2024-02-04T13:32:44;2.28;;;1.88;;
6422;SDS011;3244;42.708;23.288;2024-02-04T13:35:10;4.70;;;4.28;;
6422;SDS011;3244;42.708;23.288;2024-02-04T13:37:37;5.80;;;2.00;;
6422;SDS011;3244;42.708;23.288;2024-02-04T13:40:06;7.13;;;4.07;;
6422;SDS011;3244;42.708;23.288;2024-02-04T13:42:34;4.10;;;2.30;;
6422;SDS011;3244;42.708;23.288;2024-02-04T13:45:01;2.15;;;1.80;;
6422;SDS011;3244;42.708;23.288;2024-02-04T13:47:28;1.85;;;1.75;;
6422;SDS011;3244;42.708;23.288;2024-02-04T13:49:56;2.60;;;1.40;;
6422;SDS011;3244;42.708;23.288;2024-02-04T13:52:22;2.83;;;1.95;;
6422;SDS011;3244;42.708;23.288;2024-02-04T13:54:48;1.92;;;1.83;;
6422;SDS011;3244;42.708;23.288;2024-02-04T13:57:15;2.42;;;2.10;;
6422;SDS011;3244;42.708;23.288;2024-02-04T13:59:41;2.40;;;1.80;;
6422;SDS011;3244;42.708;23.288;2024-02-04T14:02:08;5.15;;;1.90;;
6422;SDS011;3244;42.708;23.288;2024-02-04T14:04:35;2.30;;;2.03;;
6422;SDS011;3244;42.708;23.288;2024-02-04T14:07:11;3.22;;;1.85;;
6422;SDS011;3244;42.708;23.288;2024-02-04T14:09:45;2.40;;;1.67;;
6422;SDS011;3244;42.708;23.288;2024-02-04T14:12:12;2.28;;;1.63;;
6422;SDS011;3244;42.708;23.288;2024-02-04T14:14:39;2.90;;;2.05;;
6422;SDS011;3244;42.708;23.288;2024-02-04T14:17:09;1.83;;;1.73;;
6422;SDS011;3244;42.708;23.288;2024-02-04T14:19:42;1.13;;;1.13;;
6422;SDS011;3244;42.708;23.288;2024-02-04T14:22:11;1.85;;;1.75;;
6422;SDS011;3244;42.708;23.288;2024-02-04T14:24:38;4.18;;;2.25;;
6422;SDS011;3244;42.708;23.288;2024-02-04T14:27:04;1.90;;;1.80;;
6422;SDS011;3244;42.708;23.288;2024-02-04T14:29:31;2.58;;;2.40;;
6422;SDS011;3244;42.708;23.288;2024-02-04T14:31:57;5.43;;;2.97;;
6422;SDS011;3244;42.708;23.288;2024-02-04T14:34:24;2.08;;;1.85;;
6422;SDS011;3244;42.708;23.288;2024-02-04T14:36:52;1.83;;;1.73;;
6422;SDS011;3244;42.708;23.288;2024-02-04T14:39:20;2.58;;;2.42;;
6422;SDS011;3244;42.708;23.288;2024-02-04T14:41:46;1.85;;;1.75;;
6422;SDS011;3244;42.708;23.288;2024-02-04T14:44:13;2.03;;;1.92;;
6422;SDS011;3244;42.708;23.288;2024-02-04T14:46:39;1.70;;;1.60;;
6422;SDS011;3244;42.708;23.288;2024-02-04T14:49:07;2.20;;;2.08;;
6422;SDS011;3244;42.708;23.288;2024-02-04T14:51:34;1.80;;;1.70;;
6422;SDS011;3244;42.708;23.288;2024-02-04T14:54:01;1.63;;;1.55;;
6422;SDS011;3244;42.708;23.288;2024-02-04T14:56:28;3.25;;;2.55;;
6422;SDS011;3244;42.708;23.288;2024-02-04T14:58:55;2.80;;;1.80;;
6422;SDS011;3244;42.708;23.288;2024-02-04T15:01:21;2.00;;;1.90;;